Time;durP1;ratioP1;P1;durP2;ratioP2;P2;SDS_P1;SDS_P2;PMS_P1;PMS_P2;Temp;Humidity;BMP_temperature;BMP_pressure;BME280_temperature;BME280_humidity;BME280_pressure;Samples;Min_cycle;Max_cycle;Signal;HPM_P1;HPM_P2
2022/04/13 00:01:28;;;;;;;49.33;36.83;;;;;;;29.80;72.34;100713.69;5082189;27;70627;-40
2022/04/13 00:04:00;;;;;;;64.20;36.35;;;;;;;29.88;71.90;100717.19;5085399;27;66717;-38
2022/04/13 00:06:31;;;;;;;45.58;34.03;;;;;;;29.92;71.19;100726.50;5089602;27;70097;-38
2022/04/13 00:09:02;;;;;;;55.75;36.83;;;;;;;29.95;72.50;100726.06;5100189;27;66195;-37
2022/04/13 00:11:33;;;;;;;48.22;36.85;;;;;;;29.97;72.85;100732.09;5101143;27;69747;-37
2022/04/13 00:14:05;;;;;;;48.92;38.10;;;;;;;29.95;72.75;100731.47;5098072;27;65123;-38
2022/04/13 00:16:36;;;;;;;53.47;36.27;;;;;;;29.91;72.47;100714.03;5092370;27;69047;-36
2022/04/13 00:19:08;;;;;;;52.22;38.13;;;;;;;30.03;72.25;100736.63;5084657;27;65785;-40
2022/04/13 00:21:41;;;;;;;47.25;35.83;;;;;;;30.01;72.50;100725.22;5080270;27;69028;-37
2022/04/13 00:24:13;;;;;;;54.17;39.45;;;;;;;30.03;72.97;100731.22;5086852;27;66185;-37
2022/04/13 00:26:44;;;;;;;51.25;38.72;;;;;;;30.03;71.59;100739.34;5078836;27;69157;-38
2022/04/13 00:29:15;;;;;;;50.63;38.13;;;;;;;30.05;73.14;100756.19;5081176;27;67085;-39
2022/04/13 00:31:46;;;;;;;53.83;40.05;;;;;;;30.07;73.44;100762.22;5089037;27;69341;-39
2022/04/13 00:34:17;;;;;;;52.72;36.53;;;;;;;30.09;72.71;100753.88;5085152;27;65049;-39
2022/04/13 00:36:48;;;;;;;33.70;29.53;;;;;;;30.30;68.98;100760.84;5106972;27;69377;-38
2022/04/13 00:39:19;;;;;;;29.45;26.35;;;;;;;30.42;67.82;100765.34;5097271;27;67873;-37
2022/04/13 00:42:02;;;;;;;27.23;24.45;;;;;;;30.49;67.69;100773.41;5086564;27;69883;-38
2022/04/13 00:44:34;;;;;;;28.55;24.50;;;;;;;30.58;66.88;100763.94;5081396;27;66109;-39
2022/04/13 00:47:08;;;;;;;;;;;;;;;30.32;68.14;100780.41;5080560;27;69878;-38
2022/04/13 00:49:39;;;;;;;25.70;23.30;;;;;;;30.71;66.17;100788.19;5081572;27;66000;-38
2022/04/13 00:52:12;;;;;;;26.30;23.23;;;;;;;30.80;65.20;100793.38;5093832;27;69618;-38
2022/04/13 00:54:46;;;;;;;27.13;23.65;;;;;;;30.87;65.49;100794.13;5091025;27;64980;-38
2022/04/13 00:57:19;;;;;;;27.45;23.17;;;;;;;30.95;64.72;100799.25;5092247;27;68697;-37
2022/04/13 00:59:54;;;;;;;24.35;21.75;;;;;;;30.97;64.54;100789.03;5091214;27;65980;-39
2022/04/13 01:02:27;;;;;;;24.83;22.02;;;;;;;31.02;64.32;100799.22;5080137;27;68863;-37
2022/04/13 01:05:02;;;;;;;23.88;21.45;;;;;;;31.11;64.10;100816.81;5095503;27;65134;-37
2022/04/13 01:07:35;;;;;;;25.08;21.52;;;;;;;31.13;63.67;100802.00;5097509;27;69525;-38
2022/04/13 01:10:07;;;;;;;23.15;20.73;;;;;;;31.20;63.97;100803.81;5082208;27;66024;-38
2022/04/13 01:12:38;;;;;;;;;;;;;;;30.87;64.80;100802.25;5085735;27;69430;-38
2022/04/13 01:15:09;;;;;;;22.15;19.88;;;;;;;31.18;63.65;100798.63;5086151;27;66253;-37
2022/04/13 01:17:43;;;;;;;22.50;20.40;;;;;;;31.27;63.30;100805.41;5082137;27;68628;-39
2022/04/13 01:20:16;;;;;;;21.38;19.35;;;;;;;31.31;63.12;100805.78;5091289;27;66136;-38
2022/04/13 01:22:49;;;;;;;22.55;20.33;;;;;;;31.34;62.76;100797.19;5087676;27;69871;-37
2022/04/13 01:25:21;;;;;;;20.67;18.48;;;;;;;31.40;62.74;100812.59;5097497;27;65845;-38
2022/04/13 01:27:54;;;;;;;21.13;19.33;;;;;;;31.41;62.17;100806.13;5098538;27;69161;-37
2022/04/13 01:30:26;;;;;;;21.80;19.58;;;;;;;31.35;62.46;100788.03;5085517;27;65835;-38
2022/04/13 01:32:58;;;;;;;20.20;18.30;;;;;;;31.49;62.11;100803.13;5100833;27;70102;-38
2022/04/13 01:35:30;;;;;;;19.42;17.52;;;;;;;31.49;61.90;100800.41;5088298;27;66281;-38
2022/04/13 01:38:02;;;;;;;19.50;17.75;;;;;;;31.45;61.86;100796.47;5099371;27;70391;-39
2022/04/13 01:40:34;;;;;;;19.05;17.33;;;;;;;31.58;61.37;100818.00;5098812;27;66438;-38
2022/04/13 01:43:05;;;;;;;22.25;17.77;;;;;;;31.60;61.39;100806.94;5099925;27;70553;-38
2022/04/13 01:45:37;;;;;;;22.25;17.27;;;;;;;31.63;61.08;100808.38;5079900;27;65950;-39
2022/04/13 01:48:11;;;;;;;19.20;17.43;;;;;;;31.66;60.82;100791.66;5095306;27;70191;-39
2022/04/13 01:50:42;;;;;;;18.73;16.92;;;;;;;31.69;61.04;100791.19;5082366;27;65681;-38
2022/04/13 01:53:14;;;;;;;18.52;16.67;;;;;;;31.69;60.49;100786.59;5099759;27;70650;-38
2022/04/13 01:55:47;;;;;;;19.42;17.45;;;;;;;31.76;60.59;100797.34;5100526;27;64787;-38
2022/04/13 01:58:18;;;;;;;18.95;16.70;;;;;;;31.82;60.50;100801.88;5084391;27;70360;-39
2022/04/13 02:00:53;;;;;;;17.83;16.27;;;;;;;31.84;60.62;100802.47;5083974;27;66350;-37
2022/04/13 02:03:25;;;;;;;16.77;15.45;;;;;;;31.81;60.22;100800.22;5081815;27;69676;-38
2022/04/13 02:05:56;;;;;;;18.42;16.70;;;;;;;31.89;60.26;100810.75;5083866;27;65343;-38
2022/04/13 02:08:27;;;;;;;17.92;16.23;;;;;;;31.92;60.30;100804.88;5083013;27;69568;-39
2022/04/13 02:10:59;;;;;;;17.67;15.95;;;;;;;31.95;60.16;100812.56;5093835;27;66203;-39
2022/04/13 02:13:31;;;;;;;17.80;16.20;;;;;;;31.93;60.18;100798.44;5096098;27;68606;-40
2022/04/13 02:16:02;;;;;;;17.67;15.85;;;;;;;32.00;59.61;100810.00;5065477;27;65948;-38
2022/04/13 02:18:34;;;;;;;17.63;15.68;;;;;;;31.95;59.80;100800.88;5097264;27;70936;-40
2022/04/13 02:21:05;;;;;;;17.70;15.87;;;;;;;32.01;59.52;100805.38;5101001;27;65211;-37
2022/04/13 02:23:36;;;;;;;17.67;16.05;;;;;;;32.11;59.49;100804.84;5086753;27;69746;-37
2022/04/13 02:26:07;;;;;;;17.50;15.77;;;;;;;32.10;58.92;100792.34;5083635;27;66670;-39
2022/04/13 02:28:38;;;;;;;16.30;14.77;;;;;;;32.16;58.92;100803.09;5082344;27;70092;-39
2022/04/13 02:31:09;;;;;;;16.15;14.77;;;;;;;32.19;58.88;100790.97;5097636;27;65696;-43
2022/04/13 02:33:41;;;;;;;;;;;;;;;31.88;59.14;100800.13;5092649;27;69362;-38
2022/04/13 02:36:13;;;;;;;15.77;14.43;;;;;;;32.21;58.94;100791.56;5066372;28;65969;-39
2022/04/13 02:38:44;;;;;;;18.58;14.70;;;;;;;32.24;58.63;100793.81;5101418;27;69362;-38
2022/04/13 02:41:16;;;;;;;15.37;14.37;;;;;;;32.25;58.47;100787.31;5090390;27;66184;-39
2022/04/13 02:43:48;;;;;;;15.80;14.55;;;;;;;32.33;58.56;100797.84;5081383;27;68881;-37
2022/04/13 02:46:19;;;;;;;14.47;13.57;;;;;;;32.13;58.55;100764.75;5083726;27;66722;-38
2022/04/13 02:48:50;;;;;;;15.80;14.32;;;;;;;32.34;58.05;100785.91;5083950;27;69334;-38
2022/04/13 02:51:21;;;;;;;16.83;15.23;;;;;;;32.19;57.99;100755.69;5095508;27;66010;-38
2022/04/13 02:53:52;;;;;;;15.90;14.73;;;;;;;32.28;58.22;100768.66;5103808;27;70180;-38
2022/04/13 02:56:24;;;;;;;16.50;14.87;;;;;;;32.44;58.05;100796.22;5087638;27;66050;-37
2022/04/13 02:58:55;;;;;;;17.67;15.82;;;;;;;32.47;57.87;100799.31;5101265;27;71327;-37
2022/04/13 03:01:26;;;;;;;16.17;14.85;;;;;;;32.48;58.03;100789.28;5087061;27;66130;-38
2022/04/13 03:03:58;;;;;;;15.90;14.55;;;;;;;32.49;57.69;100786.34;5082822;27;69376;-38
2022/04/13 03:06:29;;;;;;;16.10;14.67;;;;;;;32.51;57.39;100779.84;5102336;27;66029;-39
2022/04/13 03:09:01;;;;;;;14.88;13.80;;;;;;;32.54;57.58;100776.66;5100129;27;70062;-39
2022/04/13 03:11:32;;;;;;;15.32;13.88;;;;;;;32.56;57.65;100777.25;5101448;27;66140;-38
2022/04/13 03:14:03;;;;;;;15.77;14.48;;;;;;;32.61;57.20;100778.19;5072046;27;69888;-37
2022/04/13 03:16:34;;;;;;;14.43;13.30;;;;;;;32.65;57.32;100773.13;5101920;27;66514;-37
2022/04/13 03:19:06;;;;;;;15.65;14.38;;;;;;;32.61;57.17;100761.09;5081940;27;69945;-37
2022/04/13 03:21:37;;;;;;;15.27;13.70;;;;;;;32.70;57.35;100767.81;5098354;27;66160;-38
2022/04/13 03:24:08;;;;;;;15.97;14.07;;;;;;;32.73;57.04;100764.63;5118123;27;70018;-37
2022/04/13 03:26:39;;;;;;;;;;;;;;;32.43;57.33;100762.81;5100904;27;66486;-39
2022/04/13 03:29:10;;;;;;;14.50;13.50;;;;;;;32.72;56.92;100758.38;5102511;27;69344;-40
2022/04/13 03:31:41;;;;;;;15.23;14.18;;;;;;;32.82;57.00;100763.22;5102239;27;66361;-38
2022/04/13 03:34:13;;;;;;;15.35;14.25;;;;;;;32.71;56.87;100736.91;5083520;27;69901;-38
2022/04/13 03:36:44;;;;;;;15.80;14.52;;;;;;;32.82;56.54;100763.22;5083044;27;66382;-38
2022/04/13 03:39:16;;;;;;;15.40;13.55;;;;;;;32.89;56.47;100753.06;5081702;27;71838;-38
2022/04/13 03:41:48;;;;;;;15.65;14.13;;;;;;;32.94;56.46;100745.03;5095097;27;66081;-38
2022/04/13 03:44:19;;;;;;;15.97;14.70;;;;;;;32.88;56.31;100735.09;5082824;27;69844;-38
2022/04/13 03:46:50;;;;;;;14.93;13.73;;;;;;;32.98;56.36;100739.09;5081363;27;67260;-38
2022/04/13 03:49:21;;;;;;;15.07;13.63;;;;;;;33.00;56.06;100728.88;5096676;27;69074;-38
2022/04/13 03:51:52;;;;;;;15.55;14.25;;;;;;;33.01;55.94;100738.66;5098634;27;66189;-37
2022/04/13 03:54:24;;;;;;;15.65;14.35;;;;;;;33.01;55.74;100722.34;5099564;27;70363;-37
2022/04/13 03:56:55;;;;;;;;;;;;;;;32.76;56.09;100730.72;5098274;27;66421;-38
2022/04/13 03:59:26;;;;;;;15.00;13.68;;;;;;;32.83;55.99;100696.97;5102037;27;70939;-38
2022/04/13 04:01:57;;;;;;;14.35;13.23;;;;;;;33.10;55.45;100726.38;5100866;27;66496;-38
2022/04/13 04:04:28;;;;;;;15.30;14.23;;;;;;;33.12;55.58;100716.88;5087138;27;70043;-38
2022/04/13 04:07:00;;;;;;;16.00;14.52;;;;;;;33.04;55.54;100700.13;5082508;27;65612;-37
2022/04/13 04:09:31;;;;;;;15.45;14.15;;;;;;;33.14;55.81;100711.22;5097956;27;69676;-39
2022/04/13 04:12:02;;;;;;;17.00;13.97;;;;;;;33.11;55.52;100689.97;5102027;27;66336;-37
2022/04/13 04:14:33;;;;;;;15.98;14.20;;;;;;;33.07;55.59;100669.75;5098899;27;69340;-38
2022/04/13 04:17:04;;;;;;;15.27;14.27;;;;;;;33.22;55.44;100686.41;5093682;27;67113;-39
2022/04/13 04:19:36;;;;;;;15.30;13.55;;;;;;;33.23;55.35;100676.34;5098014;27;70326;-37
2022/04/13 04:22:06;;;;;;;16.30;14.63;;;;;;;33.20;55.04;100661.34;5098867;27;67568;-37
2022/04/13 04:24:38;;;;;;;18.43;15.20;;;;;;;33.20;55.25;100661.34;5095095;27;69899;-37
2022/04/13 04:27:09;;;;;;;16.42;14.95;;;;;;;33.00;55.07;100626.44;5081159;27;66764;-39
2022/04/13 04:29:40;;;;;;;16.83;15.10;;;;;;;33.24;55.10;100654.38;5112993;27;70822;-38
2022/04/13 04:32:11;;;;;;;16.52;15.23;;;;;;;33.31;55.15;100654.22;5100578;27;65751;-38
2022/04/13 04:34:42;;;;;;;15.63;14.17;;;;;;;33.28;54.91;100641.09;5094309;27;70589;-37
2022/04/13 04:37:13;;;;;;;16.65;15.20;;;;;;;33.35;55.02;100639.09;5099854;27;66486;-37
2022/04/13 04:39:44;;;;;;;15.13;14.03;;;;;;;33.34;54.76;100629.25;5099442;27;68850;-42
2022/04/13 04:42:15;;;;;;;16.13;14.70;;;;;;;33.30;54.78;100612.63;5095428;27;66347;-38
2022/04/13 04:44:46;;;;;;;15.82;14.52;;;;;;;33.40;54.62;100624.75;5099962;27;70696;-38
2022/04/13 04:47:17;;;;;;;16.27;14.70;;;;;;;33.42;54.45;100625.31;5101400;27;66764;-38
2022/04/13 04:49:48;;;;;;;15.05;13.95;;;;;;;33.43;54.77;100610.66;5100437;27;70663;-37
2022/04/13 04:52:20;;;;;;;16.05;14.63;;;;;;;33.45;54.60;100616.69;5098412;27;65595;-40
2022/04/13 04:54:51;;;;;;;15.85;14.40;;;;;;;33.44;54.54;100601.44;5082964;27;68948;-37
2022/04/13 04:57:22;;;;;;;15.53;14.20;;;;;;;33.48;54.73;100603.41;5083934;27;65591;-37
2022/04/13 04:59:53;;;;;;;15.13;13.80;;;;;;;33.51;54.48;100602.09;5084753;27;70649;-37
2022/04/13 05:02:24;;;;;;;16.00;14.73;;;;;;;33.42;54.58;100574.50;5099493;27;66088;-38
2022/04/13 05:04:55;;;;;;;16.63;15.20;;;;;;;33.48;54.42;100586.28;5098985;27;69596;-38
2022/04/13 05:07:26;;;;;;;17.85;16.02;;;;;;;33.50;54.48;100589.59;5100350;27;65336;-44
2022/04/13 05:09:58;;;;;;;16.30;14.80;;;;;;;33.57;54.32;100584.81;5100673;27;70956;-38
2022/04/13 05:12:29;;;;;;;17.17;15.57;;;;;;;33.50;54.22;100557.78;5079239;27;65248;-37
2022/04/13 05:15:03;;;;;;;15.73;14.52;;;;;;;33.61;54.48;100575.13;5094081;27;69144;-39
2022/04/13 05:17:35;;;;;;;16.38;15.10;;;;;;;33.62;54.20;100555.00;5087408;27;66605;-38
2022/04/13 05:20:08;;;;;;;17.25;14.88;;;;;;;33.60;54.16;100549.00;5079700;27;70852;-39
2022/04/13 05:22:39;;;;;;;16.13;14.85;;;;;;;33.62;54.29;100546.84;5099366;27;66217;-38
2022/04/13 05:25:12;;;;;;;16.23;14.93;;;;;;;33.48;53.68;100510.13;5099212;27;69772;-37
2022/04/13 05:27:44;;;;;;;16.27;14.90;;;;;;;33.68;54.03;100542.31;5093626;27;65258;-40
2022/04/13 05:30:15;;;;;;;16.80;15.35;;;;;;;33.68;54.09;100531.44;5097891;27;68464;-38
2022/04/13 05:32:49;;;;;;;15.70;14.37;;;;;;;33.72;53.89;100538.84;5099629;27;67562;-38
2022/04/13 05:35:20;;;;;;;16.33;14.68;;;;;;;33.73;53.94;100518.72;5088079;27;69969;-39
2022/04/13 05:37:52;;;;;;;16.77;15.13;;;;;;;33.73;54.17;100518.72;5080846;27;65492;-38
2022/04/13 05:40:24;;;;;;;;;;;;;;;33.43;54.28;100520.91;5092461;27;70513;-37
2022/04/13 05:42:55;;;;;;;15.77;14.40;;;;;;;33.72;53.83;100514.38;5100055;27;66132;-37
2022/04/13 05:45:26;;;;;;;17.08;15.27;;;;;;;33.74;53.93;100509.50;5079005;27;69517;-39
2022/04/13 05:48:05;;;;;;;15.77;14.27;;;;;;;33.78;53.70;100498.94;5094839;27;66684;-37
2022/04/13 05:50:36;;;;;;;15.40;14.27;;;;;;;33.83;53.71;100506.38;5092672;27;69674;-38
2022/04/13 05:53:07;;;;;;;16.05;14.63;;;;;;;33.83;53.52;100500.94;5099129;27;65281;-39
2022/04/13 05:55:38;;;;;;;15.32;14.02;;;;;;;33.81;53.74;100482.94;5099227;27;68812;-37
2022/04/13 05:58:09;;;;;;;16.43;14.83;;;;;;;33.88;53.63;100484.66;5085366;27;65287;-39
2022/04/13 06:00:41;;;;;;;16.05;14.60;;;;;;;33.91;53.55;100476.03;5094977;27;69053;-38
2022/04/13 06:03:12;;;;;;;;;;;;;;;33.64;53.78;100467.72;5080255;27;66194;-38
2022/04/13 06:06:03;;;;;;;15.85;14.38;;;;;;;33.97;53.54;100453.25;5065403;27;69745;-38
2022/04/13 06:08:34;;;;;;;16.23;14.52;;;;;;;33.98;53.56;100450.25;5099975;27;66191;-38
2022/04/13 06:11:05;;;;;;;15.25;13.95;;;;;;;34.01;53.31;100459.81;5099730;27;70258;-37
2022/04/13 06:13:36;;;;;;;15.87;14.57;;;;;;;34.00;53.15;100450.00;5115131;27;67390;-39
2022/04/13 06:16:08;;;;;;;17.00;14.15;;;;;;;33.98;53.44;100438.56;5068332;27;68886;-38
2022/04/13 06:18:39;;;;;;;15.88;14.45;;;;;;;34.06;53.17;100446.31;5099003;27;65269;-38
2022/04/13 06:21:10;;;;;;;15.53;14.10;;;;;;;33.99;53.49;100423.84;5100072;27;70159;-37
2022/04/13 06:23:41;;;;;;;;;;;;;;;33.76;53.44;100423.00;5082659;27;65196;-38
2022/04/13 06:26:12;;;;;;;15.88;14.20;;;;;;;34.06;53.11;100421.81;5097450;27;70317;-38
2022/04/13 06:28:43;;;;;;;15.07;13.70;;;;;;;34.07;53.09;100420.72;5085028;27;66015;-37
2022/04/13 06:31:14;;;;;;;16.40;14.87;;;;;;;34.05;52.97;100411.19;5080727;27;71042;-38
2022/04/13 06:34:05;;;;;;;15.65;14.27;;;;;;;34.06;53.11;100419.09;5099417;27;65338;-39
2022/04/13 06:36:37;;;;;;;15.03;13.73;;;;;;;34.15;53.09;100412.13;5088825;27;70663;-37
2022/04/13 06:39:08;;;;;;;15.68;14.38;;;;;;;34.09;52.90;100391.38;5086337;27;65580;-40
2022/04/13 06:41:39;;;;;;;15.48;14.05;;;;;;;34.18;53.01;100400.72;5083667;27;69910;-38
2022/04/13 06:44:10;;;;;;;14.50;13.50;;;;;;;34.21;52.77;100400.25;5099600;27;65549;-38
2022/04/13 06:46:41;;;;;;;15.73;14.30;;;;;;;34.21;52.69;100393.94;5095234;27;71104;-38
2022/04/13 06:49:17;;;;;;;15.35;14.18;;;;;;;34.25;52.82;100393.19;5102311;27;65751;-38
2022/04/13 06:51:48;;;;;;;16.25;15.05;;;;;;;34.23;52.92;100383.63;5102280;27;69064;-37
2022/04/13 06:54:20;;;;;;;14.73;13.77;;;;;;;34.25;52.91;100374.13;5096030;27;66647;-38
2022/04/13 06:56:51;;;;;;;15.43;14.30;;;;;;;34.24;52.64;100377.94;5097936;27;70553;-38
2022/04/13 06:59:22;;;;;;;15.73;14.27;;;;;;;34.28;52.84;100372.00;5102295;27;65803;-38
2022/04/13 07:01:53;;;;;;;15.57;14.37;;;;;;;34.29;52.81;100365.47;5097220;27;71511;-37
2022/04/13 07:04:24;;;;;;;14.43;13.40;;;;;;;34.30;52.45;100357.03;5088844;27;65942;-39
2022/04/13 07:06:55;;;;;;;15.07;13.98;;;;;;;34.35;52.66;100356.25;5082192;27;69815;-38
2022/04/13 07:09:26;;;;;;;16.35;13.90;;;;;;;34.25;52.54;100333.31;5097155;27;65977;-37
2022/04/13 07:11:57;;;;;;;15.27;13.93;;;;;;;34.36;52.75;100333.41;5100659;27;68871;-37
2022/04/13 07:14:28;;;;;;;15.27;13.88;;;;;;;34.32;52.37;100318.66;5100256;27;66785;-40
2022/04/13 07:16:59;;;;;;;15.00;13.73;;;;;;;34.40;52.27;100329.09;5098939;27;70395;-38
2022/04/13 07:19:30;;;;;;;14.63;13.43;;;;;;;34.39;51.91;100324.72;5108157;27;65732;-38
2022/04/13 07:22:01;;;;;;;13.98;12.65;;;;;;;34.40;52.39;100327.19;5101141;27;70244;-38
2022/04/13 07:24:37;;;;;;;15.18;13.85;;;;;;;34.40;52.12;100320.91;5089744;27;66144;-37
2022/04/13 07:27:08;;;;;;;16.27;14.20;;;;;;;34.43;52.10;100317.66;5086498;27;69520;-38
2022/04/13 07:29:39;;;;;;;13.73;12.83;;;;;;;34.34;52.41;100289.28;5080432;28;66805;-38
2022/04/13 07:32:10;;;;;;;13.80;12.60;;;;;;;34.43;52.70;100304.88;5089762;27;70947;-37
2022/04/13 07:34:41;;;;;;;14.27;13.13;;;;;;;34.39;52.24;100292.06;5102771;27;66158;-38
2022/04/13 07:37:12;;;;;;;15.53;14.33;;;;;;;34.48;52.05;100287.75;5082488;27;69983;-38
2022/04/13 07:39:43;;;;;;;15.10;13.77;;;;;;;34.50;52.05;100276.63;5081788;27;66005;-37
2022/04/13 07:42:24;;;;;;;14.30;13.32;;;;;;;34.51;52.18;100281.81;5087459;27;70031;-38
2022/04/13 07:44:55;;;;;;;15.18;13.70;;;;;;;34.54;51.81;100281.28;5094487;27;65984;-38
2022/04/13 07:47:28;;;;;;;15.05;13.93;;;;;;;34.42;51.78;100267.03;5088137;27;69616;-38
2022/04/13 07:49:59;;;;;;;14.27;13.27;;;;;;;34.55;51.80;100272.03;5092281;27;66233;-37
2022/04/13 07:52:35;;;;;;;15.48;14.15;;;;;;;34.56;51.75;100272.91;5093327;27;69213;-37
2022/04/13 07:55:09;;;;;;;14.07;12.68;;;;;;;34.56;51.91;100265.53;5087352;27;65639;-38
2022/04/13 07:57:41;;;;;;;14.88;13.60;;;;;;;34.56;52.13;100265.53;5090446;27;69005;-38
2022/04/13 08:00:12;;;;;;;;;;;;;;;33.96;52.38;100212.97;5092523;27;66325;-38
2022/04/13 08:02:44;;;;;;;16.33;14.77;;;;;;;34.19;52.00;100184.63;5087327;27;70561;-38
2022/04/13 08:05:15;;;;;;;15.30;13.93;;;;;;;34.51;51.91;100238.22;5090939;27;66658;-38
2022/04/13 08:07:46;;;;;;;14.00;13.07;;;;;;;34.58;51.83;100252.50;5090477;27;69901;-39
2022/04/13 08:10:17;;;;;;;14.13;13.23;;;;;;;34.59;51.82;100243.22;5106666;27;66405;-37
2022/04/13 08:12:49;;;;;;;14.98;13.98;;;;;;;34.59;51.93;100245.94;5094981;27;69355;-38
2022/04/13 08:15:20;;;;;;;14.43;13.40;;;;;;;34.59;51.86;100242.41;5087796;27;65822;-38
2022/04/13 08:17:51;;;;;;;14.43;13.40;;;;;;;34.59;51.89;100236.97;5084822;27;70349;-37
2022/04/13 08:20:22;;;;;;;15.52;13.77;;;;;;;34.58;51.85;100233.41;5091639;27;66314;-37
2022/04/13 08:22:54;;;;;;;13.77;12.85;;;;;;;34.46;52.11;100200.06;5093103;27;69640;-37
2022/04/13 08:25:25;;;;;;;14.70;13.55;;;;;;;34.59;51.67;100226.88;5087600;27;67005;-38
2022/04/13 08:27:56;;;;;;;14.40;13.25;;;;;;;34.59;51.43;100221.44;5082457;27;69974;-38
2022/04/13 08:30:27;;;;;;;;;;;;;;;34.33;52.23;100225.84;5095952;27;66708;-38
2022/04/13 08:32:58;;;;;;;14.68;13.38;;;;;;;34.62;51.74;100229.09;5092366;27;69141;-37
2022/04/13 08:35:30;;;;;;;14.80;13.55;;;;;;;34.60;51.36;100212.19;5095884;27;65797;-39
2022/04/13 08:38:01;;;;;;;14.85;13.75;;;;;;;34.61;51.64;100202.94;5094777;27;69966;-38
2022/04/13 08:40:44;;;;;;;15.50;14.02;;;;;;;34.70;51.49;100223.16;5095716;27;66009;-39
2022/04/13 08:43:22;;;;;;;16.35;14.80;;;;;;;34.35;51.51;100154.78;5093141;27;70361;-37
2022/04/13 08:45:56;;;;;;;15.25;14.20;;;;;;;34.67;51.30;100207.31;5092894;27;66089;-38
2022/04/13 08:48:28;;;;;;;14.27;13.38;;;;;;;34.78;51.31;100219.13;5066228;27;68651;-38
2022/04/13 08:51:03;;;;;;;15.35;14.20;;;;;;;34.50;50.97;100168.50;5089759;27;66106;-38
2022/04/13 08:53:40;;;;;;;16.08;14.57;;;;;;;34.79;51.42;100217.22;5096095;27;43651;-39
2022/04/13 08:56:17;;;;;;;15.88;14.32;;;;;;;34.42;51.44;100149.94;5091883;27;67159;-39
2022/04/13 08:59:17;;;;;;;14.77;13.70;;;;;;;34.80;51.30;100227.84;5093004;27;70502;-38
2022/04/13 09:02:03;;;;;;;15.13;14.07;;;;;;;34.81;51.36;100212.31;5059164;27;66663;-38
2022/04/13 09:04:38;;;;;;;14.90;13.73;;;;;;;34.78;51.16;100204.69;5086131;27;69200;-38
2022/04/13 09:07:13;;;;;;;15.02;13.93;;;;;;;34.75;50.95;100191.59;5090250;27;65624;-38
2022/04/13 09:09:47;;;;;;;14.27;12.95;;;;;;;34.87;51.42;100222.97;5091885;27;70273;-38
2022/04/13 09:12:19;;;;;;;15.30;14.10;;;;;;;34.90;51.61;100232.53;5091389;27;66447;-38
2022/04/13 09:14:50;;;;;;;14.40;13.43;;;;;;;34.90;51.00;100227.09;5090184;27;70830;-38
2022/04/13 09:17:21;;;;;;;15.63;14.25;;;;;;;34.92;51.42;100224.91;5094266;27;66052;-38
2022/04/13 09:19:54;;;;;;;14.32;13.35;;;;;;;34.93;51.24;100215.66;5091203;27;69904;-38
2022/04/13 09:22:26;;;;;;;15.00;13.68;;;;;;;34.96;51.07;100231.47;5110952;27;66899;-38
2022/04/13 09:24:59;;;;;;;14.02;13.02;;;;;;;35.00;51.01;100232.59;5089709;27;69806;-37
2022/04/13 09:27:38;;;;;;;15.55;14.13;;;;;;;34.61;51.10;100172.16;5086503;27;65548;-38
2022/04/13 09:30:13;;;;;;;15.43;13.82;;;;;;;34.94;51.57;100233.66;5093566;27;69987;-38
2022/04/13 09:32:45;;;;;;;15.18;13.93;;;;;;;34.52;51.12;100169.09;5089779;27;65466;-38
2022/04/13 09:35:17;;;;;;;14.93;13.82;;;;;;;35.02;51.21;100268.59;5093875;27;69612;-39
2022/04/13 09:37:48;;;;;;;14.82;13.73;;;;;;;34.93;51.12;100256.53;5093004;27;65110;-38
2022/04/13 09:40:41;;;;;;;14.97;13.43;;;;;;;34.92;51.02;100273.97;5089940;27;69796;-38
2022/04/13 09:43:19;;;;;;;13.88;12.77;;;;;;;34.65;51.33;100214.94;5091518;27;65253;-38
2022/04/13 09:45:52;;;;;;;14.82;13.52;;;;;;;35.02;51.92;100281.38;5092226;27;70001;-39
2022/04/13 09:48:24;;;;;;;14.63;13.52;;;;;;;35.02;51.47;100284.94;5092605;27;66422;-37
2022/04/13 09:50:58;;;;;;;15.02;13.77;;;;;;;35.00;51.85;100298.00;5094200;27;70139;-38
2022/04/13 09:53:29;;;;;;;14.13;13.25;;;;;;;35.00;52.17;100303.47;5087104;27;65220;-39
2022/04/13 09:56:00;;;;;;;14.30;13.20;;;;;;;34.98;52.19;100318.44;5089898;27;69441;-38
2022/04/13 09:58:33;;;;;;;14.30;13.40;;;;;;;34.97;52.37;100320.34;5090248;27;65381;-39
2022/04/13 10:01:06;;;;;;;14.15;13.00;;;;;;;34.96;52.01;100323.31;5093031;27;70014;-39
2022/04/13 10:03:52;;;;;;;13.65;12.57;;;;;;;34.93;52.49;100327.38;5090889;27;66423;-38
2022/04/13 10:06:30;;;;;;;14.85;13.07;;;;;;;34.90;52.19;100319.72;5089327;27;70000;-38
2022/04/13 10:09:08;;;;;;;12.90;12.07;;;;;;;34.88;52.23;100338.25;5090218;27;65320;-38
2022/04/13 10:11:58;;;;;;;14.30;13.13;;;;;;;34.77;52.74;100353.72;5092997;27;70475;-38
2022/04/13 10:14:31;;;;;;;14.07;12.95;;;;;;;34.84;52.26;100364.38;5093657;27;65961;-38
2022/04/13 10:17:12;;;;;;;27.27;14.60;;;;;;;34.70;54.11;100348.47;5090340;27;68918;-38
2022/04/13 10:19:51;;;;;;;23.98;15.20;;;;;;;34.65;55.04;100415.69;5088544;27;65931;-38
2022/04/13 10:22:22;;;;;;;25.55;15.70;;;;;;;34.42;55.91;100419.50;5095615;27;70224;-38
2022/04/13 10:24:53;;;;;;;28.73;16.13;;;;;;;34.19;57.10;100404.28;5086020;27;65647;-38
2022/04/13 10:27:25;;;;;;;29.70;16.13;;;;;;;34.04;58.04;100394.00;5095705;27;70411;-38
2022/04/13 10:30:07;;;;;;;20.20;16.60;;;;;;;33.90;58.52;100388.09;5089585;27;65342;-37
2022/04/13 10:32:38;;;;;;;20.35;15.45;;;;;;;33.95;58.47;100403.69;5087083;27;67698;-37
2022/04/13 10:35:09;;;;;;;27.40;15.10;;;;;;;33.91;58.29;100416.16;5087353;27;67426;-36
2022/04/13 10:37:40;;;;;;;23.00;14.63;;;;;;;33.82;58.84;100380.38;5084682;27;68813;-37
2022/04/13 10:40:11;;;;;;;16.03;13.43;;;;;;;33.77;58.77;100351.22;5089084;27;65519;-37
2022/04/13 10:42:48;;;;;;;14.35;12.85;;;;;;;33.74;58.57;100356.34;5106685;27;67541;-37
2022/04/13 10:45:20;;;;;;;13.70;12.48;;;;;;;33.61;58.75;100343.94;5096182;27;64758;-37
2022/04/13 10:48:00;;;;;;;16.08;12.90;;;;;;;33.64;58.08;100340.72;5076599;27;69952;-38
2022/04/13 10:51:01;;;;;;;11.73;10.80;;;;;;;33.56;58.19;100338.44;5098675;27;66867;-37
2022/04/13 10:53:42;;;;;;;17.00;11.73;;;;;;;33.58;58.23;100355.34;5082570;27;70146;-36
2022/04/13 10:56:15;;;;;;;12.20;10.97;;;;;;;33.55;58.96;100358.56;5102863;27;65781;-37
2022/04/13 10:59:01;;;;;;;11.77;9.50;;;;;;;33.43;58.77;100366.75;5071792;27;69197;-37
2022/04/13 11:01:46;;;;;;;10.73;10.00;;;;;;;33.38;58.50;100362.09;5087727;27;65783;-37
2022/04/13 11:04:17;;;;;;;11.02;9.98;;;;;;;33.34;58.73;100346.53;5081290;27;69479;-40
2022/04/13 11:06:50;;;;;;;11.10;10.00;;;;;;;33.41;58.76;100358.06;5096713;27;65287;-38
2022/04/13 11:09:36;;;;;;;11.10;10.18;;;;;;;33.31;58.96;100339.69;5084712;27;70273;-37
2022/04/13 11:12:09;;;;;;;14.90;11.90;;;;;;;33.41;59.29;100346.38;5103214;27;65176;-38
2022/04/13 11:14:50;;;;;;;12.75;11.43;;;;;;;32.92;59.84;100274.41;5099289;27;69929;-40
2022/04/13 11:17:29;;;;;;;12.60;11.35;;;;;;;33.40;60.51;100355.56;5094938;27;66479;-39
2022/04/13 11:20:18;;;;;;;13.38;12.18;;;;;;;33.30;60.73;100361.69;5071334;27;69347;-38
2022/04/13 11:23:08;;;;;;;12.70;11.60;;;;;;;33.27;60.32;100373.91;5086621;27;65980;-38
2022/04/13 11:25:51;;;;;;;13.85;12.50;;;;;;;33.08;60.35;100329.84;5094987;27;71404;-37
2022/04/13 11:28:24;;;;;;;15.13;13.13;;;;;;;33.25;60.50;100359.72;5084028;27;66158;-37
2022/04/13 11:31:03;;;;;;;13.48;12.18;;;;;;;33.27;60.39;100368.47;5088287;27;69228;-37
2022/04/13 11:33:53;;;;;;;15.25;13.25;;;;;;;33.14;60.76;100374.22;5096276;27;65950;-37
2022/04/13 11:36:29;;;;;;;14.75;13.32;;;;;;;32.84;60.68;100307.41;5087310;27;69264;-37
2022/04/13 11:39:13;;;;;;;15.40;12.93;;;;;;;33.17;60.81;100372.91;5079059;27;66166;-38